Terminal Aerodrome Forecast
Issued by NWS

Current Version | Previous Version | Graphics & Text | Print | Product List | Glossary On
Versions: 1 2 3 4 5 6 7 8 9 10 11 12 13 14 15 16 17 18 19 20 21 22 23 24 25 26 27 28 29 30 31
000
FTUS41 KILN 271100 RRA
TAFLUK
TAF
KLUK 271141Z 2712/2812 18007KT P6SM OVC070
      TEMPO 2713/2715 5SM -SHRA BKN040
     FM271800 20008KT P6SM VCSH OVC040
      TEMPO 2723/2801 3SM -SHRA SCT012 OVC018
     FM280100 25006KT 5SM -SHRA OVC015
     FM280900 34006KT P6SM VCSH OVC018=

USA.gov is the U.S. government's official web portal to all federal, state and local government web resources and services.